マニラ/ニノイ・アキノ の空港の天気 - METARとTAF

ニノイ・アキノ国際空港 ( RPLL / MNL ) - フィリピン マニラ
飛行場実況気象(Metar)
観測時間01/17 14:00 PHT (01/17 06:00 UTC)
風向・風速東 7m/s 瞬間風速12m/s
視程10km以上
天気現象
全天の4割程度の雲 雲底高度 700m
全天の8割程度の雲 雲底高度 3050m
気温28℃
湿度62%
気圧1012hPa
METARRPLL 170600Z 10013G24KT 9999 SCT023 BKN100 28/20 Q1012 NOSIG RMK A2988
過去の天気等 Google飛行場航空写真 Wunderground天気予報

過去48時間のMETAR

飛行場予報(TAF)
発表時間: 1/17 13:00 PHT (1/17 05:00 UTC)
予報対象時間: 17日14時 PHT ~ 18日20時 PHT
風向・風速東 4m/s
視程10km以上
少しの雲 雲底高度 700m
全天の4割程度の雲 雲底高度 3,050m
17日14時 PHT ~ 17日20時 PHT に一時的に
風向・風速東 8m/s 瞬間風速 13m/s
全天の4割程度の雲 雲底高度 700m
全天の8割程度の雲 雲底高度 3,050m
17日20時 PHT ~ 18日2時 PHT に一時的に
風向・風速東 7m/s 瞬間風速 12m/s
少しの雲 雲底高度 700m
全天の8割程度の雲 雲底高度 7,620m
TAF RPLL 170500Z 1706/1812 09008KT 9999 FEW023 SCT100 TX32/1706Z TN25/1721Z
TEMPO 1706/1712 10015G25KT SCT023 BKN100
TEMPO 1712/1718 09014G24KT FEW023 BKN250